sensor_id;sensor_type;location;lat;lon;timestamp;P1;durP1;ratioP1;P2;durP2;ratioP2
19291;SDS011;9779;51.756;7.450;2023-10-08T00:01:34;7.43;;;4.70;;
19291;SDS011;9779;51.756;7.450;2023-10-08T00:04:00;12.00;;;4.37;;
19291;SDS011;9779;51.756;7.450;2023-10-08T00:06:29;10.07;;;5.13;;
19291;SDS011;9779;51.756;7.450;2023-10-08T00:08:55;7.10;;;4.73;;
19291;SDS011;9779;51.756;7.450;2023-10-08T00:11:35;5.37;;;4.83;;
19291;SDS011;9779;51.756;7.450;2023-10-08T00:14:02;5.40;;;4.90;;
19291;SDS011;9779;51.756;7.450;2023-10-08T00:16:30;5.13;;;4.17;;
19291;SDS011;9779;51.756;7.450;2023-10-08T00:18:58;9.60;;;5.50;;
19291;SDS011;9779;51.756;7.450;2023-10-08T00:21:32;5.70;;;4.53;;
19291;SDS011;9779;51.756;7.450;2023-10-08T00:24:00;6.47;;;4.87;;
19291;SDS011;9779;51.756;7.450;2023-10-08T00:26:28;8.40;;;4.80;;
19291;SDS011;9779;51.756;7.450;2023-10-08T00:28:57;7.37;;;5.03;;
19291;SDS011;9779;51.756;7.450;2023-10-08T00:31:24;10.43;;;5.40;;
19291;SDS011;9779;51.756;7.450;2023-10-08T00:33:55;5.37;;;4.87;;
19291;SDS011;9779;51.756;7.450;2023-10-08T00:36:21;5.20;;;4.70;;
19291;SDS011;9779;51.756;7.450;2023-10-08T00:38:49;7.23;;;5.23;;
19291;SDS011;9779;51.756;7.450;2023-10-08T00:41:18;10.57;;;4.67;;
19291;SDS011;9779;51.756;7.450;2023-10-08T00:43:50;6.23;;;5.20;;
19291;SDS011;9779;51.756;7.450;2023-10-08T00:46:16;8.93;;;5.10;;
19291;SDS011;9779;51.756;7.450;2023-10-08T00:48:52;10.10;;;5.23;;
19291;SDS011;9779;51.756;7.450;2023-10-08T00:51:22;10.93;;;5.00;;
19291;SDS011;9779;51.756;7.450;2023-10-08T00:53:52;11.67;;;4.97;;
19291;SDS011;9779;51.756;7.450;2023-10-08T00:56:32;9.90;;;4.70;;
19291;SDS011;9779;51.756;7.450;2023-10-08T00:59:24;10.03;;;4.90;;
19291;SDS011;9779;51.756;7.450;2023-10-08T01:01:50;7.47;;;4.87;;
19291;SDS011;9779;51.756;7.450;2023-10-08T01:06:44;12.57;;;5.80;;
19291;SDS011;9779;51.756;7.450;2023-10-08T01:09:12;5.80;;;4.83;;
19291;SDS011;9779;51.756;7.450;2023-10-08T01:11:46;8.83;;;5.00;;
19291;SDS011;9779;51.756;7.450;2023-10-08T01:14:38;7.50;;;4.67;;
19291;SDS011;9779;51.756;7.450;2023-10-08T01:17:07;6.43;;;4.73;;
19291;SDS011;9779;51.756;7.450;2023-10-08T01:19:33;10.70;;;4.77;;
19291;SDS011;9779;51.756;7.450;2023-10-08T01:22:06;6.40;;;4.83;;
19291;SDS011;9779;51.756;7.450;2023-10-08T01:24:33;8.90;;;5.13;;
19291;SDS011;9779;51.756;7.450;2023-10-08T01:27:00;8.97;;;4.80;;
19291;SDS011;9779;51.756;7.450;2023-10-08T01:29:30;11.13;;;5.43;;
19291;SDS011;9779;51.756;7.450;2023-10-08T01:31:56;11.87;;;5.17;;
19291;SDS011;9779;51.756;7.450;2023-10-08T01:34:22;10.07;;;4.67;;
19291;SDS011;9779;51.756;7.450;2023-10-08T01:36:55;10.13;;;5.37;;
19291;SDS011;9779;51.756;7.450;2023-10-08T01:39:25;9.60;;;5.00;;
19291;SDS011;9779;51.756;7.450;2023-10-08T01:41:51;7.53;;;5.60;;
19291;SDS011;9779;51.756;7.450;2023-10-08T01:44:17;11.20;;;4.77;;
19291;SDS011;9779;51.756;7.450;2023-10-08T01:46:42;5.80;;;4.57;;
19291;SDS011;9779;51.756;7.450;2023-10-08T01:49:08;11.83;;;4.90;;
19291;SDS011;9779;51.756;7.450;2023-10-08T01:51:41;9.90;;;5.00;;
19291;SDS011;9779;51.756;7.450;2023-10-08T01:54:14;9.97;;;5.30;;
19291;SDS011;9779;51.756;7.450;2023-10-08T01:56:43;7.47;;;4.70;;
19291;SDS011;9779;51.756;7.450;2023-10-08T01:59:09;10.63;;;5.13;;
19291;SDS011;9779;51.756;7.450;2023-10-08T02:01:36;8.67;;;4.70;;
19291;SDS011;9779;51.756;7.450;2023-10-08T02:04:03;8.50;;;4.63;;
19291;SDS011;9779;51.756;7.450;2023-10-08T02:06:32;8.43;;;4.97;;
19291;SDS011;9779;51.756;7.450;2023-10-08T02:08:58;8.57;;;5.30;;
19291;SDS011;9779;51.756;7.450;2023-10-08T02:11:24;6.57;;;4.40;;
19291;SDS011;9779;51.756;7.450;2023-10-08T02:13:52;5.73;;;4.50;;
19291;SDS011;9779;51.756;7.450;2023-10-08T02:16:18;9.27;;;5.03;;
19291;SDS011;9779;51.756;7.450;2023-10-08T02:18:44;8.53;;;4.90;;
19291;SDS011;9779;51.756;7.450;2023-10-08T02:21:11;12.63;;;4.90;;
19291;SDS011;9779;51.756;7.450;2023-10-08T02:23:36;5.50;;;4.67;;
19291;SDS011;9779;51.756;7.450;2023-10-08T02:26:02;9.30;;;4.87;;
19291;SDS011;9779;51.756;7.450;2023-10-08T02:28:28;12.70;;;5.60;;
19291;SDS011;9779;51.756;7.450;2023-10-08T02:30:54;6.97;;;5.23;;
19291;SDS011;9779;51.756;7.450;2023-10-08T02:33:19;6.03;;;4.60;;
19291;SDS011;9779;51.756;7.450;2023-10-08T02:35:46;5.80;;;4.83;;
19291;SDS011;9779;51.756;7.450;2023-10-08T02:38:13;13.23;;;4.73;;
19291;SDS011;9779;51.756;7.450;2023-10-08T02:40:43;13.73;;;5.47;;
19291;SDS011;9779;51.756;7.450;2023-10-08T02:43:13;10.53;;;5.30;;
19291;SDS011;9779;51.756;7.450;2023-10-08T02:45:40;7.90;;;5.33;;
19291;SDS011;9779;51.756;7.450;2023-10-08T02:48:07;15.20;;;5.43;;
19291;SDS011;9779;51.756;7.450;2023-10-08T02:50:40;12.43;;;5.23;;
19291;SDS011;9779;51.756;7.450;2023-10-08T02:53:06;9.40;;;4.83;;
19291;SDS011;9779;51.756;7.450;2023-10-08T02:55:39;14.90;;;5.27;;
19291;SDS011;9779;51.756;7.450;2023-10-08T02:58:11;16.70;;;5.00;;
19291;SDS011;9779;51.756;7.450;2023-10-08T03:00:44;13.43;;;4.97;;
19291;SDS011;9779;51.756;7.450;2023-10-08T03:03:14;6.93;;;4.50;;
19291;SDS011;9779;51.756;7.450;2023-10-08T03:05:48;7.13;;;5.00;;
19291;SDS011;9779;51.756;7.450;2023-10-08T03:08:18;8.03;;;5.30;;
19291;SDS011;9779;51.756;7.450;2023-10-08T03:10:48;16.10;;;5.10;;
19291;SDS011;9779;51.756;7.450;2023-10-08T03:13:16;15.93;;;5.43;;
19291;SDS011;9779;51.756;7.450;2023-10-08T03:15:42;5.93;;;4.80;;
19291;SDS011;9779;51.756;7.450;2023-10-08T03:18:26;13.10;;;5.27;;
19291;SDS011;9779;51.756;7.450;2023-10-08T03:21:03;13.07;;;5.10;;
19291;SDS011;9779;51.756;7.450;2023-10-08T03:23:31;11.07;;;5.50;;
19291;SDS011;9779;51.756;7.450;2023-10-08T03:26:02;6.77;;;5.33;;
19291;SDS011;9779;51.756;7.450;2023-10-08T03:28:35;9.37;;;5.50;;
19291;SDS011;9779;51.756;7.450;2023-10-08T03:31:02;16.87;;;5.80;;
19291;SDS011;9779;51.756;7.450;2023-10-08T03:33:38;7.10;;;5.37;;
19291;SDS011;9779;51.756;7.450;2023-10-08T03:36:04;12.53;;;5.50;;
19291;SDS011;9779;51.756;7.450;2023-10-08T03:38:46;10.50;;;5.10;;
19291;SDS011;9779;51.756;7.450;2023-10-08T03:41:24;13.43;;;5.70;;
19291;SDS011;9779;51.756;7.450;2023-10-08T03:43:54;9.80;;;5.70;;
19291;SDS011;9779;51.756;7.450;2023-10-08T03:46:37;8.73;;;4.60;;
19291;SDS011;9779;51.756;7.450;2023-10-08T03:49:10;10.07;;;5.50;;
19291;SDS011;9779;51.756;7.450;2023-10-08T03:51:50;8.57;;;4.90;;
19291;SDS011;9779;51.756;7.450;2023-10-08T03:54:22;11.03;;;5.27;;
19291;SDS011;9779;51.756;7.450;2023-10-08T03:57:00;12.40;;;5.03;;
19291;SDS011;9779;51.756;7.450;2023-10-08T03:59:28;10.43;;;5.57;;
19291;SDS011;9779;51.756;7.450;2023-10-08T04:01:54;9.93;;;5.23;;
19291;SDS011;9779;51.756;7.450;2023-10-08T04:04:24;8.77;;;4.67;;
19291;SDS011;9779;51.756;7.450;2023-10-08T04:07:13;7.83;;;5.30;;
19291;SDS011;9779;51.756;7.450;2023-10-08T04:09:52;12.27;;;5.87;;
19291;SDS011;9779;51.756;7.450;2023-10-08T04:12:40;11.23;;;5.33;;
19291;SDS011;9779;51.756;7.450;2023-10-08T04:15:10;9.33;;;5.63;;
19291;SDS011;9779;51.756;7.450;2023-10-08T04:17:40;9.03;;;3.90;;
19291;SDS011;9779;51.756;7.450;2023-10-08T04:20:12;4.23;;;3.30;;
19291;SDS011;9779;51.756;7.450;2023-10-08T04:23:09;4.83;;;3.03;;
19291;SDS011;9779;51.756;7.450;2023-10-08T04:25:45;2.23;;;1.70;;
19291;SDS011;9779;51.756;7.450;2023-10-08T04:28:16;1.17;;;1.07;;
19291;SDS011;9779;51.756;7.450;2023-10-08T04:30:45;2.47;;;0.90;;
19291;SDS011;9779;51.756;7.450;2023-10-08T04:33:13;1.40;;;1.30;;
19291;SDS011;9779;51.756;7.450;2023-10-08T04:35:43;0.80;;;0.60;;
19291;SDS011;9779;51.756;7.450;2023-10-08T04:38:21;0.60;;;0.60;;
19291;SDS011;9779;51.756;7.450;2023-10-08T04:40:48;3.23;;;0.70;;
19291;SDS011;9779;51.756;7.450;2023-10-08T04:43:17;1.53;;;0.87;;
19291;SDS011;9779;51.756;7.450;2023-10-08T04:45:55;7.37;;;0.90;;
19291;SDS011;9779;51.756;7.450;2023-10-08T04:48:22;1.33;;;0.60;;
19291;SDS011;9779;51.756;7.450;2023-10-08T04:50:54;0.83;;;0.70;;
19291;SDS011;9779;51.756;7.450;2023-10-08T04:55:56;0.87;;;0.87;;
19291;SDS011;9779;51.756;7.450;2023-10-08T04:58:22;4.10;;;1.20;;
19291;SDS011;9779;51.756;7.450;2023-10-08T05:00:58;1.47;;;1.30;;
19291;SDS011;9779;51.756;7.450;2023-10-08T05:03:51;2.40;;;1.20;;
19291;SDS011;9779;51.756;7.450;2023-10-08T05:06:20;1.20;;;1.20;;
19291;SDS011;9779;51.756;7.450;2023-10-08T05:09:07;1.23;;;1.10;;
19291;SDS011;9779;51.756;7.450;2023-10-08T05:11:44;1.13;;;1.13;;
19291;SDS011;9779;51.756;7.450;2023-10-08T05:14:19;1.50;;;1.40;;
19291;SDS011;9779;51.756;7.450;2023-10-08T05:17:02;3.17;;;1.73;;
19291;SDS011;9779;51.756;7.450;2023-10-08T05:19:56;3.10;;;1.67;;
19291;SDS011;9779;51.756;7.450;2023-10-08T05:22:33;3.20;;;1.60;;
19291;SDS011;9779;51.756;7.450;2023-10-08T05:25:09;3.13;;;1.77;;
19291;SDS011;9779;51.756;7.450;2023-10-08T05:27:41;4.53;;;2.13;;
19291;SDS011;9779;51.756;7.450;2023-10-08T05:30:17;1.83;;;1.73;;
19291;SDS011;9779;51.756;7.450;2023-10-08T05:32:53;1.83;;;1.73;;
19291;SDS011;9779;51.756;7.450;2023-10-08T05:35:32;2.23;;;1.53;;
19291;SDS011;9779;51.756;7.450;2023-10-08T05:38:07;2.43;;;1.40;;
19291;SDS011;9779;51.756;7.450;2023-10-08T05:40:42;1.77;;;1.03;;
19291;SDS011;9779;51.756;7.450;2023-10-08T05:43:23;4.83;;;1.33;;
19291;SDS011;9779;51.756;7.450;2023-10-08T05:46:18;1.67;;;1.10;;
19291;SDS011;9779;51.756;7.450;2023-10-08T05:48:50;4.73;;;1.07;;
19291;SDS011;9779;51.756;7.450;2023-10-08T05:51:32;1.27;;;1.00;;
19291;SDS011;9779;51.756;7.450;2023-10-08T05:57:10;2.27;;;1.03;;
19291;SDS011;9779;51.756;7.450;2023-10-08T05:59:35;1.43;;;1.33;;
19291;SDS011;9779;51.756;7.450;2023-10-08T06:02:23;4.17;;;1.20;;
19291;SDS011;9779;51.756;7.450;2023-10-08T06:04:58;3.03;;;1.20;;
19291;SDS011;9779;51.756;7.450;2023-10-08T06:07:45;1.50;;;1.40;;
19291;SDS011;9779;51.756;7.450;2023-10-08T06:10:24;2.33;;;0.93;;
19291;SDS011;9779;51.756;7.450;2023-10-08T06:13:12;1.90;;;0.80;;
19291;SDS011;9779;51.756;7.450;2023-10-08T06:15:48;1.07;;;0.63;;
19291;SDS011;9779;51.756;7.450;2023-10-08T06:18:21;1.77;;;0.90;;
19291;SDS011;9779;51.756;7.450;2023-10-08T06:20:52;0.70;;;0.63;;
19291;SDS011;9779;51.756;7.450;2023-10-08T06:23:25;0.80;;;0.80;;
19291;SDS011;9779;51.756;7.450;2023-10-08T06:25:53;0.50;;;0.50;;
19291;SDS011;9779;51.756;7.450;2023-10-08T06:28:19;0.70;;;0.70;;
19291;SDS011;9779;51.756;7.450;2023-10-08T06:30:48;0.60;;;0.60;;
19291;SDS011;9779;51.756;7.450;2023-10-08T06:33:15;0.63;;;0.60;;
19291;SDS011;9779;51.756;7.450;2023-10-08T06:35:41;1.03;;;0.60;;
19291;SDS011;9779;51.756;7.450;2023-10-08T06:38:22;0.57;;;0.57;;
19291;SDS011;9779;51.756;7.450;2023-10-08T06:40:49;1.57;;;0.50;;
19291;SDS011;9779;51.756;7.450;2023-10-08T06:43:17;0.77;;;0.60;;
19291;SDS011;9779;51.756;7.450;2023-10-08T06:45:47;0.53;;;0.30;;
19291;SDS011;9779;51.756;7.450;2023-10-08T06:48:17;0.47;;;0.40;;
19291;SDS011;9779;51.756;7.450;2023-10-08T06:50:46;1.23;;;0.40;;
19291;SDS011;9779;51.756;7.450;2023-10-08T06:53:13;2.10;;;0.40;;
19291;SDS011;9779;51.756;7.450;2023-10-08T06:55:39;0.30;;;0.30;;
19291;SDS011;9779;51.756;7.450;2023-10-08T06:58:06;0.40;;;0.40;;
19291;SDS011;9779;51.756;7.450;2023-10-08T07:00:39;0.30;;;0.30;;
19291;SDS011;9779;51.756;7.450;2023-10-08T07:03:11;0.40;;;0.40;;
19291;SDS011;9779;51.756;7.450;2023-10-08T07:05:40;0.40;;;0.40;;
19291;SDS011;9779;51.756;7.450;2023-10-08T07:08:08;0.60;;;0.60;;
19291;SDS011;9779;51.756;7.450;2023-10-08T07:10:38;0.50;;;0.50;;
19291;SDS011;9779;51.756;7.450;2023-10-08T07:13:06;0.30;;;0.30;;
19291;SDS011;9779;51.756;7.450;2023-10-08T07:15:33;0.67;;;0.40;;
19291;SDS011;9779;51.756;7.450;2023-10-08T07:18:04;0.50;;;0.50;;
19291;SDS011;9779;51.756;7.450;2023-10-08T07:20:35;1.07;;;0.40;;
19291;SDS011;9779;51.756;7.450;2023-10-08T07:23:04;0.40;;;0.40;;
19291;SDS011;9779;51.756;7.450;2023-10-08T07:25:54;0.30;;;0.30;;
19291;SDS011;9779;51.756;7.450;2023-10-08T07:28:35;0.47;;;0.30;;
19291;SDS011;9779;51.756;7.450;2023-10-08T07:31:14;0.60;;;0.60;;
19291;SDS011;9779;51.756;7.450;2023-10-08T07:33:41;0.30;;;0.30;;
19291;SDS011;9779;51.756;7.450;2023-10-08T07:36:11;0.30;;;0.30;;
19291;SDS011;9779;51.756;7.450;2023-10-08T07:38:40;2.50;;;0.30;;
19291;SDS011;9779;51.756;7.450;2023-10-08T07:41:07;0.67;;;0.50;;
19291;SDS011;9779;51.756;7.450;2023-10-08T07:43:37;0.73;;;0.60;;
19291;SDS011;9779;51.756;7.450;2023-10-08T07:46:03;0.60;;;0.60;;
19291;SDS011;9779;51.756;7.450;2023-10-08T07:48:30;0.50;;;0.50;;
19291;SDS011;9779;51.756;7.450;2023-10-08T07:50:56;1.60;;;0.70;;
19291;SDS011;9779;51.756;7.450;2023-10-08T07:53:23;0.50;;;0.50;;
19291;SDS011;9779;51.756;7.450;2023-10-08T07:55:49;0.63;;;0.63;;
19291;SDS011;9779;51.756;7.450;2023-10-08T07:58:16;1.20;;;0.80;;
19291;SDS011;9779;51.756;7.450;2023-10-08T08:00:44;1.00;;;0.80;;
19291;SDS011;9779;51.756;7.450;2023-10-08T08:03:19;1.80;;;0.80;;
19291;SDS011;9779;51.756;7.450;2023-10-08T08:05:45;0.60;;;0.60;;
19291;SDS011;9779;51.756;7.450;2023-10-08T08:08:12;2.13;;;0.47;;
19291;SDS011;9779;51.756;7.450;2023-10-08T08:10:42;5.20;;;0.73;;
19291;SDS011;9779;51.756;7.450;2023-10-08T08:13:09;0.93;;;0.67;;
19291;SDS011;9779;51.756;7.450;2023-10-08T08:15:34;2.47;;;0.80;;
19291;SDS011;9779;51.756;7.450;2023-10-08T08:18:06;3.27;;;1.03;;
19291;SDS011;9779;51.756;7.450;2023-10-08T08:20:43;3.03;;;0.83;;
19291;SDS011;9779;51.756;7.450;2023-10-08T08:23:09;9.00;;;0.87;;
19291;SDS011;9779;51.756;7.450;2023-10-08T08:25:36;2.03;;;0.90;;
19291;SDS011;9779;51.756;7.450;2023-10-08T08:28:31;2.90;;;0.97;;
19291;SDS011;9779;51.756;7.450;2023-10-08T08:31:04;3.57;;;1.10;;
19291;SDS011;9779;51.756;7.450;2023-10-08T08:33:38;1.97;;;0.80;;
19291;SDS011;9779;51.756;7.450;2023-10-08T08:36:26;3.80;;;1.23;;
19291;SDS011;9779;51.756;7.450;2023-10-08T08:38:52;5.07;;;1.40;;
19291;SDS011;9779;51.756;7.450;2023-10-08T08:41:18;3.83;;;1.33;;
19291;SDS011;9779;51.756;7.450;2023-10-08T08:43:52;3.07;;;1.03;;
19291;SDS011;9779;51.756;7.450;2023-10-08T08:46:44;6.83;;;1.63;;
19291;SDS011;9779;51.756;7.450;2023-10-08T08:49:10;6.47;;;1.30;;
19291;SDS011;9779;51.756;7.450;2023-10-08T08:51:38;9.33;;;1.93;;
19291;SDS011;9779;51.756;7.450;2023-10-08T08:54:04;7.37;;;1.80;;
19291;SDS011;9779;51.756;7.450;2023-10-08T08:56:34;4.27;;;1.80;;
19291;SDS011;9779;51.756;7.450;2023-10-08T08:59:02;4.67;;;2.20;;
19291;SDS011;9779;51.756;7.450;2023-10-08T09:01:29;6.10;;;2.10;;
19291;SDS011;9779;51.756;7.450;2023-10-08T09:03:59;4.70;;;2.07;;
19291;SDS011;9779;51.756;7.450;2023-10-08T09:06:33;7.07;;;3.13;;
19291;SDS011;9779;51.756;7.450;2023-10-08T09:09:03;3.50;;;2.10;;
19291;SDS011;9779;51.756;7.450;2023-10-08T09:11:48;5.17;;;1.77;;
19291;SDS011;9779;51.756;7.450;2023-10-08T09:14:17;3.00;;;1.30;;
19291;SDS011;9779;51.756;7.450;2023-10-08T09:16:54;3.00;;;1.60;;
19291;SDS011;9779;51.756;7.450;2023-10-08T09:19:21;2.67;;;1.47;;
19291;SDS011;9779;51.756;7.450;2023-10-08T09:22:02;11.17;;;1.70;;
19291;SDS011;9779;51.756;7.450;2023-10-08T09:24:39;4.47;;;1.33;;
19291;SDS011;9779;51.756;7.450;2023-10-08T09:27:06;3.00;;;1.60;;
19291;SDS011;9779;51.756;7.450;2023-10-08T09:29:36;3.60;;;1.60;;
19291;SDS011;9779;51.756;7.450;2023-10-08T09:32:11;2.57;;;1.57;;
19291;SDS011;9779;51.756;7.450;2023-10-08T09:34:48;4.30;;;1.70;;
19291;SDS011;9779;51.756;7.450;2023-10-08T09:37:15;3.60;;;1.83;;
19291;SDS011;9779;51.756;7.450;2023-10-08T09:39:42;3.03;;;1.63;;
19291;SDS011;9779;51.756;7.450;2023-10-08T09:42:10;3.40;;;2.13;;
19291;SDS011;9779;51.756;7.450;2023-10-08T09:44:39;3.90;;;2.03;;
19291;SDS011;9779;51.756;7.450;2023-10-08T09:47:08;4.30;;;2.37;;
19291;SDS011;9779;51.756;7.450;2023-10-08T09:52:07;4.47;;;1.83;;
19291;SDS011;9779;51.756;7.450;2023-10-08T09:57:24;5.53;;;1.80;;
19291;SDS011;9779;51.756;7.450;2023-10-08T09:59:51;5.40;;;2.03;;
19291;SDS011;9779;51.756;7.450;2023-10-08T10:02:18;2.90;;;1.50;;
19291;SDS011;9779;51.756;7.450;2023-10-08T10:04:48;14.17;;;2.10;;
19291;SDS011;9779;51.756;7.450;2023-10-08T10:07:16;3.60;;;1.50;;
19291;SDS011;9779;51.756;7.450;2023-10-08T10:09:45;1.97;;;1.20;;
19291;SDS011;9779;51.756;7.450;2023-10-08T10:12:18;2.93;;;1.50;;
19291;SDS011;9779;51.756;7.450;2023-10-08T10:14:54;1.80;;;1.07;;
19291;SDS011;9779;51.756;7.450;2023-10-08T10:17:27;2.80;;;1.30;;
19291;SDS011;9779;51.756;7.450;2023-10-08T10:19:57;2.30;;;1.37;;
19291;SDS011;9779;51.756;7.450;2023-10-08T10:22:31;1.60;;;0.90;;
19291;SDS011;9779;51.756;7.450;2023-10-08T10:24:59;4.93;;;1.30;;
19291;SDS011;9779;51.756;7.450;2023-10-08T10:27:29;2.47;;;1.00;;
19291;SDS011;9779;51.756;7.450;2023-10-08T10:30:02;2.10;;;1.00;;
19291;SDS011;9779;51.756;7.450;2023-10-08T10:32:33;2.77;;;1.10;;
19291;SDS011;9779;51.756;7.450;2023-10-08T10:35:02;3.47;;;1.37;;
19291;SDS011;9779;51.756;7.450;2023-10-08T10:37:30;2.97;;;1.20;;
19291;SDS011;9779;51.756;7.450;2023-10-08T10:40:06;2.20;;;0.93;;
19291;SDS011;9779;51.756;7.450;2023-10-08T10:42:37;3.97;;;1.10;;
19291;SDS011;9779;51.756;7.450;2023-10-08T10:45:12;9.87;;;1.37;;
19291;SDS011;9779;51.756;7.450;2023-10-08T10:47:59;3.00;;;1.10;;
19291;SDS011;9779;51.756;7.450;2023-10-08T10:50:37;1.90;;;1.10;;
19291;SDS011;9779;51.756;7.450;2023-10-08T10:53:25;6.60;;;1.30;;
19291;SDS011;9779;51.756;7.450;2023-10-08T10:55:52;7.57;;;1.43;;
19291;SDS011;9779;51.756;7.450;2023-10-08T10:58:34;2.67;;;1.33;;
19291;SDS011;9779;51.756;7.450;2023-10-08T11:01:05;3.87;;;1.10;;
19291;SDS011;9779;51.756;7.450;2023-10-08T11:03:49;3.97;;;1.40;;
19291;SDS011;9779;51.756;7.450;2023-10-08T11:06:16;7.07;;;1.20;;
19291;SDS011;9779;51.756;7.450;2023-10-08T11:08:47;3.03;;;1.13;;
19291;SDS011;9779;51.756;7.450;2023-10-08T11:11:16;5.13;;;1.47;;
19291;SDS011;9779;51.756;7.450;2023-10-08T11:13:43;3.37;;;1.10;;
19291;SDS011;9779;51.756;7.450;2023-10-08T11:16:12;11.73;;;1.93;;
19291;SDS011;9779;51.756;7.450;2023-10-08T11:18:43;3.67;;;1.30;;
19291;SDS011;9779;51.756;7.450;2023-10-08T11:21:12;2.77;;;1.20;;
19291;SDS011;9779;51.756;7.450;2023-10-08T11:24:03;2.27;;;1.40;;
19291;SDS011;9779;51.756;7.450;2023-10-08T11:26:37;3.27;;;0.90;;
19291;SDS011;9779;51.756;7.450;2023-10-08T11:29:19;3.23;;;0.97;;
19291;SDS011;9779;51.756;7.450;2023-10-08T11:31:51;2.67;;;1.00;;
19291;SDS011;9779;51.756;7.450;2023-10-08T11:34:16;2.93;;;1.30;;
19291;SDS011;9779;51.756;7.450;2023-10-08T11:36:52;1.67;;;0.80;;
19291;SDS011;9779;51.756;7.450;2023-10-08T11:39:18;7.73;;;1.23;;
19291;SDS011;9779;51.756;7.450;2023-10-08T11:41:56;4.47;;;1.43;;
19291;SDS011;9779;51.756;7.450;2023-10-08T11:44:31;4.27;;;1.27;;
19291;SDS011;9779;51.756;7.450;2023-10-08T11:47:01;4.17;;;1.03;;
19291;SDS011;9779;51.756;7.450;2023-10-08T11:49:36;1.97;;;0.90;;
19291;SDS011;9779;51.756;7.450;2023-10-08T11:52:04;4.20;;;1.07;;
19291;SDS011;9779;51.756;7.450;2023-10-08T11:54:30;5.30;;;0.90;;
19291;SDS011;9779;51.756;7.450;2023-10-08T11:56:58;2.53;;;0.83;;
19291;SDS011;9779;51.756;7.450;2023-10-08T11:59:27;4.00;;;1.33;;
19291;SDS011;9779;51.756;7.450;2023-10-08T12:01:54;2.97;;;0.70;;
19291;SDS011;9779;51.756;7.450;2023-10-08T12:04:21;2.10;;;0.97;;
19291;SDS011;9779;51.756;7.450;2023-10-08T12:06:47;1.63;;;0.90;;
19291;SDS011;9779;51.756;7.450;2023-10-08T12:09:17;2.10;;;0.80;;
19291;SDS011;9779;51.756;7.450;2023-10-08T12:11:48;2.93;;;1.30;;
19291;SDS011;9779;51.756;7.450;2023-10-08T12:14:13;2.57;;;1.10;;
19291;SDS011;9779;51.756;7.450;2023-10-08T12:16:40;2.73;;;1.10;;
19291;SDS011;9779;51.756;7.450;2023-10-08T12:19:07;5.97;;;1.67;;
19291;SDS011;9779;51.756;7.450;2023-10-08T12:21:42;2.70;;;1.10;;
19291;SDS011;9779;51.756;7.450;2023-10-08T12:24:11;2.87;;;1.10;;
19291;SDS011;9779;51.756;7.450;2023-10-08T12:26:37;4.10;;;1.10;;
19291;SDS011;9779;51.756;7.450;2023-10-08T12:29:10;4.50;;;0.90;;
19291;SDS011;9779;51.756;7.450;2023-10-08T12:31:39;4.63;;;1.10;;
19291;SDS011;9779;51.756;7.450;2023-10-08T12:34:05;7.13;;;1.00;;
19291;SDS011;9779;51.756;7.450;2023-10-08T12:36:31;3.80;;;1.37;;
19291;SDS011;9779;51.756;7.450;2023-10-08T12:39:01;2.43;;;1.03;;
19291;SDS011;9779;51.756;7.450;2023-10-08T12:41:53;9.80;;;1.20;;
19291;SDS011;9779;51.756;7.450;2023-10-08T12:44:19;6.77;;;1.07;;
19291;SDS011;9779;51.756;7.450;2023-10-08T12:46:44;4.80;;;1.07;;
19291;SDS011;9779;51.756;7.450;2023-10-08T12:49:13;1.20;;;0.90;;
19291;SDS011;9779;51.756;7.450;2023-10-08T12:51:39;2.63;;;1.03;;
19291;SDS011;9779;51.756;7.450;2023-10-08T12:54:06;5.00;;;1.37;;
19291;SDS011;9779;51.756;7.450;2023-10-08T12:56:33;2.00;;;0.93;;
19291;SDS011;9779;51.756;7.450;2023-10-08T12:59:13;4.63;;;1.10;;
19291;SDS011;9779;51.756;7.450;2023-10-08T13:01:46;3.20;;;0.80;;
19291;SDS011;9779;51.756;7.450;2023-10-08T13:04:16;3.33;;;0.83;;
19291;SDS011;9779;51.756;7.450;2023-10-08T13:06:50;3.40;;;1.03;;
19291;SDS011;9779;51.756;7.450;2023-10-08T13:09:16;5.23;;;0.90;;
19291;SDS011;9779;51.756;7.450;2023-10-08T13:11:42;7.37;;;1.30;;
19291;SDS011;9779;51.756;7.450;2023-10-08T13:14:08;2.13;;;0.83;;
19291;SDS011;9779;51.756;7.450;2023-10-08T13:16:33;3.63;;;0.90;;
19291;SDS011;9779;51.756;7.450;2023-10-08T13:19:02;1.90;;;0.73;;
19291;SDS011;9779;51.756;7.450;2023-10-08T13:21:28;4.30;;;0.80;;
19291;SDS011;9779;51.756;7.450;2023-10-08T13:23:56;1.63;;;0.90;;
19291;SDS011;9779;51.756;7.450;2023-10-08T13:26:24;2.10;;;0.90;;
19291;SDS011;9779;51.756;7.450;2023-10-08T13:28:55;2.37;;;1.13;;
19291;SDS011;9779;51.756;7.450;2023-10-08T13:31:25;2.33;;;1.10;;
19291;SDS011;9779;51.756;7.450;2023-10-08T13:33:51;2.57;;;0.83;;
19291;SDS011;9779;51.756;7.450;2023-10-08T13:36:17;3.27;;;0.73;;
19291;SDS011;9779;51.756;7.450;2023-10-08T13:38:43;1.80;;;0.60;;
19291;SDS011;9779;51.756;7.450;2023-10-08T13:41:11;2.53;;;0.90;;
19291;SDS011;9779;51.756;7.450;2023-10-08T13:43:40;1.27;;;0.87;;
19291;SDS011;9779;51.756;7.450;2023-10-08T13:46:10;3.17;;;0.80;;
19291;SDS011;9779;51.756;7.450;2023-10-08T13:48:41;1.97;;;0.90;;
19291;SDS011;9779;51.756;7.450;2023-10-08T13:51:11;3.07;;;1.00;;
19291;SDS011;9779;51.756;7.450;2023-10-08T13:53:40;4.40;;;1.00;;
19291;SDS011;9779;51.756;7.450;2023-10-08T13:56:10;2.37;;;1.20;;
19291;SDS011;9779;51.756;7.450;2023-10-08T13:58:37;2.90;;;1.00;;
19291;SDS011;9779;51.756;7.450;2023-10-08T14:01:06;4.37;;;1.33;;
19291;SDS011;9779;51.756;7.450;2023-10-08T14:03:47;1.57;;;0.73;;
19291;SDS011;9779;51.756;7.450;2023-10-08T14:06:16;2.03;;;0.97;;
19291;SDS011;9779;51.756;7.450;2023-10-08T14:08:42;2.90;;;1.13;;
19291;SDS011;9779;51.756;7.450;2023-10-08T14:11:20;1.67;;;0.90;;
19291;SDS011;9779;51.756;7.450;2023-10-08T14:13:50;1.70;;;0.80;;
19291;SDS011;9779;51.756;7.450;2023-10-08T14:16:16;1.67;;;0.80;;
19291;SDS011;9779;51.756;7.450;2023-10-08T14:18:43;2.37;;;0.77;;
19291;SDS011;9779;51.756;7.450;2023-10-08T14:21:15;2.97;;;0.80;;
19291;SDS011;9779;51.756;7.450;2023-10-08T14:23:43;2.63;;;1.03;;
19291;SDS011;9779;51.756;7.450;2023-10-08T14:26:09;4.77;;;1.30;;
19291;SDS011;9779;51.756;7.450;2023-10-08T14:28:36;4.87;;;1.03;;
19291;SDS011;9779;51.756;7.450;2023-10-08T14:31:16;5.30;;;1.00;;
19291;SDS011;9779;51.756;7.450;2023-10-08T14:33:42;1.93;;;1.30;;
19291;SDS011;9779;51.756;7.450;2023-10-08T14:36:22;1.37;;;0.90;;
19291;SDS011;9779;51.756;7.450;2023-10-08T14:39:07;1.13;;;0.87;;
19291;SDS011;9779;51.756;7.450;2023-10-08T14:41:51;1.13;;;1.03;;
19291;SDS011;9779;51.756;7.450;2023-10-08T14:44:35;2.53;;;0.73;;
19291;SDS011;9779;51.756;7.450;2023-10-08T14:47:02;3.23;;;1.00;;
19291;SDS011;9779;51.756;7.450;2023-10-08T14:49:31;2.90;;;0.97;;
19291;SDS011;9779;51.756;7.450;2023-10-08T14:51:57;4.27;;;0.90;;
19291;SDS011;9779;51.756;7.450;2023-10-08T14:54:23;2.93;;;1.07;;
19291;SDS011;9779;51.756;7.450;2023-10-08T14:56:49;1.77;;;0.80;;
19291;SDS011;9779;51.756;7.450;2023-10-08T14:59:18;2.67;;;1.07;;
19291;SDS011;9779;51.756;7.450;2023-10-08T15:01:46;3.67;;;0.83;;
19291;SDS011;9779;51.756;7.450;2023-10-08T15:04:12;2.23;;;1.47;;
19291;SDS011;9779;51.756;7.450;2023-10-08T15:06:38;4.67;;;1.80;;
19291;SDS011;9779;51.756;7.450;2023-10-08T15:09:04;6.73;;;1.33;;
19291;SDS011;9779;51.756;7.450;2023-10-08T15:11:32;3.00;;;1.00;;
19291;SDS011;9779;51.756;7.450;2023-10-08T15:14:01;6.57;;;2.27;;
19291;SDS011;9779;51.756;7.450;2023-10-08T15:16:37;1.87;;;0.90;;
19291;SDS011;9779;51.756;7.450;2023-10-08T15:19:04;3.03;;;1.03;;
19291;SDS011;9779;51.756;7.450;2023-10-08T15:21:30;1.60;;;0.97;;
19291;SDS011;9779;51.756;7.450;2023-10-08T15:24:00;2.87;;;0.77;;
19291;SDS011;9779;51.756;7.450;2023-10-08T15:26:30;8.60;;;3.87;;
19291;SDS011;9779;51.756;7.450;2023-10-08T15:28:57;14.20;;;4.57;;
19291;SDS011;9779;51.756;7.450;2023-10-08T15:31:22;4.90;;;1.70;;
19291;SDS011;9779;51.756;7.450;2023-10-08T15:33:49;3.70;;;2.83;;
19291;SDS011;9779;51.756;7.450;2023-10-08T15:36:15;2.83;;;1.87;;
19291;SDS011;9779;51.756;7.450;2023-10-08T15:38:41;9.10;;;5.33;;